KOXD/OXD METAR and TAF weather

Enter ICAO airport designator
Station Type Date Time Source
KOXD METAR 2021/07/26 12:59 UTC NOAA

KOXD 261259Z AUTO 00004KT 10SM CLR 24/19 A3003 RMK AO2


Station Type Date Time Source
KOXD Decoded METAR 2021/07/26 12:59 UTC NOAA

Station name not available
Jul 26, 2021 - 08:59 AM EDT / 2021.07.26 1259 UTC
Wind: from the N (000 degrees) at 5 MPH (4 KT):0
Visibility: 10 mile(s):0
Sky conditions: clear
Temperature: 75 F (24 C)
Dew Point: 66 F (19 C)
Relative Humidity: 73%
Pressure (altimeter): 30.03 in. Hg (1016 hPa)
ob: KOXD 261259Z AUTO 00004KT 10SM CLR 24/19 A3003 RMK AO2
cycle: 13

Station Type Date Time Source
KOXD TAF UTC NOAA

Error!

Example: see airport list